sensor_id;sensor_type;location;lat;lon;timestamp;temperature;humidity
9730;DHT22;4904;49.152;11.004;2023-03-19T00:01:26;8.10;99.90
9730;DHT22;4904;49.152;11.004;2023-03-19T00:03:53;8.10;99.90
9730;DHT22;4904;49.152;11.004;2023-03-19T00:06:22;8.20;99.90
9730;DHT22;4904;49.152;11.004;2023-03-19T00:08:50;8.20;99.90
9730;DHT22;4904;49.152;11.004;2023-03-19T00:11:17;8.20;99.90
9730;DHT22;4904;49.152;11.004;2023-03-19T00:13:44;8.20;99.90
9730;DHT22;4904;49.152;11.004;2023-03-19T00:16:11;8.20;99.90
9730;DHT22;4904;49.152;11.004;2023-03-19T00:18:38;8.20;99.90
9730;DHT22;4904;49.152;11.004;2023-03-19T00:21:06;8.20;99.90
9730;DHT22;4904;49.152;11.004;2023-03-19T00:23:34;8.10;99.90
9730;DHT22;4904;49.152;11.004;2023-03-19T00:26:02;8.00;99.90
9730;DHT22;4904;49.152;11.004;2023-03-19T00:28:29;7.90;99.90
9730;DHT22;4904;49.152;11.004;2023-03-19T00:30:56;7.80;99.90
9730;DHT22;4904;49.152;11.004;2023-03-19T00:33:23;7.60;99.90
9730;DHT22;4904;49.152;11.004;2023-03-19T00:35:51;7.80;99.90
9730;DHT22;4904;49.152;11.004;2023-03-19T00:38:18;7.80;99.90
9730;DHT22;4904;49.152;11.004;2023-03-19T00:40:46;7.90;99.90
9730;DHT22;4904;49.152;11.004;2023-03-19T00:43:13;8.00;99.90
9730;DHT22;4904;49.152;11.004;2023-03-19T00:45:40;8.00;99.90
9730;DHT22;4904;49.152;11.004;2023-03-19T00:48:07;7.90;99.90
9730;DHT22;4904;49.152;11.004;2023-03-19T00:50:34;7.90;99.90
9730;DHT22;4904;49.152;11.004;2023-03-19T00:53:01;7.90;99.90
9730;DHT22;4904;49.152;11.004;2023-03-19T00:55:28;7.90;99.90
9730;DHT22;4904;49.152;11.004;2023-03-19T00:57:56;8.00;99.90
9730;DHT22;4904;49.152;11.004;2023-03-19T01:00:23;8.00;99.90
9730;DHT22;4904;49.152;11.004;2023-03-19T01:02:50;8.00;99.90
9730;DHT22;4904;49.152;11.004;2023-03-19T01:05:17;8.00;99.90
9730;DHT22;4904;49.152;11.004;2023-03-19T01:07:44;7.90;99.90
9730;DHT22;4904;49.152;11.004;2023-03-19T01:10:11;7.90;99.90
9730;DHT22;4904;49.152;11.004;2023-03-19T01:12:38;7.80;99.90
9730;DHT22;4904;49.152;11.004;2023-03-19T01:15:07;7.90;99.90
9730;DHT22;4904;49.152;11.004;2023-03-19T01:17:34;7.90;99.90
9730;DHT22;4904;49.152;11.004;2023-03-19T01:20:01;7.80;99.90
9730;DHT22;4904;49.152;11.004;2023-03-19T01:22:28;7.80;99.90
9730;DHT22;4904;49.152;11.004;2023-03-19T01:24:55;7.80;99.90
9730;DHT22;4904;49.152;11.004;2023-03-19T01:27:22;7.80;99.90
9730;DHT22;4904;49.152;11.004;2023-03-19T01:29:49;7.90;99.90
9730;DHT22;4904;49.152;11.004;2023-03-19T01:32:18;7.80;99.90
9730;DHT22;4904;49.152;11.004;2023-03-19T01:34:44;7.80;99.90
9730;DHT22;4904;49.152;11.004;2023-03-19T01:37:12;7.80;99.90
9730;DHT22;4904;49.152;11.004;2023-03-19T01:39:39;7.70;99.90
9730;DHT22;4904;49.152;11.004;2023-03-19T01:42:06;7.60;99.90
9730;DHT22;4904;49.152;11.004;2023-03-19T01:44:35;7.60;99.90
9730;DHT22;4904;49.152;11.004;2023-03-19T01:47:04;7.60;99.90
9730;DHT22;4904;49.152;11.004;2023-03-19T01:49:33;7.70;99.90
9730;DHT22;4904;49.152;11.004;2023-03-19T01:52:02;7.30;99.90
9730;DHT22;4904;49.152;11.004;2023-03-19T01:54:31;7.00;99.90
9730;DHT22;4904;49.152;11.004;2023-03-19T01:57:01;7.20;99.90
9730;DHT22;4904;49.152;11.004;2023-03-19T01:59:31;7.40;99.90
9730;DHT22;4904;49.152;11.004;2023-03-19T02:02:02;7.20;99.90
9730;DHT22;4904;49.152;11.004;2023-03-19T02:04:30;6.70;99.90
9730;DHT22;4904;49.152;11.004;2023-03-19T02:07:00;6.50;99.90
9730;DHT22;4904;49.152;11.004;2023-03-19T02:09:28;6.30;99.90
9730;DHT22;4904;49.152;11.004;2023-03-19T02:11:57;6.50;99.90
9730;DHT22;4904;49.152;11.004;2023-03-19T02:14:25;6.60;99.90
9730;DHT22;4904;49.152;11.004;2023-03-19T02:16:53;6.50;99.90
9730;DHT22;4904;49.152;11.004;2023-03-19T02:19:24;6.60;99.90
9730;DHT22;4904;49.152;11.004;2023-03-19T02:21:53;6.60;99.90
9730;DHT22;4904;49.152;11.004;2023-03-19T02:24:25;6.80;99.90
9730;DHT22;4904;49.152;11.004;2023-03-19T02:26:56;6.90;99.90
9730;DHT22;4904;49.152;11.004;2023-03-19T02:29:24;7.10;99.90
9730;DHT22;4904;49.152;11.004;2023-03-19T02:31:51;7.20;99.90
9730;DHT22;4904;49.152;11.004;2023-03-19T02:34:35;7.20;99.90
9730;DHT22;4904;49.152;11.004;2023-03-19T02:37:06;7.30;99.90
9730;DHT22;4904;49.152;11.004;2023-03-19T02:39:40;7.30;99.90
9730;DHT22;4904;49.152;11.004;2023-03-19T02:42:11;7.40;99.90
9730;DHT22;4904;49.152;11.004;2023-03-19T02:44:38;7.00;99.90
9730;DHT22;4904;49.152;11.004;2023-03-19T02:47:06;6.80;99.90
9730;DHT22;4904;49.152;11.004;2023-03-19T02:49:33;6.90;99.90
9730;DHT22;4904;49.152;11.004;2023-03-19T02:52:00;6.60;99.90
9730;DHT22;4904;49.152;11.004;2023-03-19T02:54:27;7.00;99.90
9730;DHT22;4904;49.152;11.004;2023-03-19T02:56:54;7.30;99.90
9730;DHT22;4904;49.152;11.004;2023-03-19T02:59:22;7.40;99.90
9730;DHT22;4904;49.152;11.004;2023-03-19T03:01:49;7.60;99.90
9730;DHT22;4904;49.152;11.004;2023-03-19T03:04:16;7.80;99.90
9730;DHT22;4904;49.152;11.004;2023-03-19T03:06:43;7.90;99.90
9730;DHT22;4904;49.152;11.004;2023-03-19T03:09:10;8.00;99.90
9730;DHT22;4904;49.152;11.004;2023-03-19T03:11:37;7.90;99.90
9730;DHT22;4904;49.152;11.004;2023-03-19T03:14:06;8.00;99.90
9730;DHT22;4904;49.152;11.004;2023-03-19T03:16:34;8.00;99.90
9730;DHT22;4904;49.152;11.004;2023-03-19T03:19:02;8.00;99.90
9730;DHT22;4904;49.152;11.004;2023-03-19T03:21:29;7.90;99.90
9730;DHT22;4904;49.152;11.004;2023-03-19T03:23:56;7.90;99.90
9730;DHT22;4904;49.152;11.004;2023-03-19T03:26:22;7.90;99.90
9730;DHT22;4904;49.152;11.004;2023-03-19T03:28:49;8.00;99.90
9730;DHT22;4904;49.152;11.004;2023-03-19T03:31:16;8.00;99.90
9730;DHT22;4904;49.152;11.004;2023-03-19T03:33:45;8.00;99.90
9730;DHT22;4904;49.152;11.004;2023-03-19T03:36:12;7.90;99.90
9730;DHT22;4904;49.152;11.004;2023-03-19T03:38:38;7.90;99.90
9730;DHT22;4904;49.152;11.004;2023-03-19T03:41:05;7.90;99.90
9730;DHT22;4904;49.152;11.004;2023-03-19T03:43:32;7.90;99.90
9730;DHT22;4904;49.152;11.004;2023-03-19T03:45:59;7.90;99.90
9730;DHT22;4904;49.152;11.004;2023-03-19T03:48:26;7.90;99.90
9730;DHT22;4904;49.152;11.004;2023-03-19T03:50:54;7.90;99.90
9730;DHT22;4904;49.152;11.004;2023-03-19T03:53:21;7.90;99.90
9730;DHT22;4904;49.152;11.004;2023-03-19T03:55:48;8.00;99.90
9730;DHT22;4904;49.152;11.004;2023-03-19T03:58:15;7.90;99.90
9730;DHT22;4904;49.152;11.004;2023-03-19T04:00:42;7.90;99.90
9730;DHT22;4904;49.152;11.004;2023-03-19T04:03:09;7.90;99.90
9730;DHT22;4904;49.152;11.004;2023-03-19T04:05:36;7.90;99.90
9730;DHT22;4904;49.152;11.004;2023-03-19T04:08:05;7.90;99.90
9730;DHT22;4904;49.152;11.004;2023-03-19T04:10:32;7.90;99.90
9730;DHT22;4904;49.152;11.004;2023-03-19T04:13:00;7.90;99.90
9730;DHT22;4904;49.152;11.004;2023-03-19T04:15:27;7.90;99.90
9730;DHT22;4904;49.152;11.004;2023-03-19T04:17:54;7.90;99.90
9730;DHT22;4904;49.152;11.004;2023-03-19T04:20:21;7.90;99.90
9730;DHT22;4904;49.152;11.004;2023-03-19T04:22:48;7.90;99.90
9730;DHT22;4904;49.152;11.004;2023-03-19T04:25:16;7.90;99.90
9730;DHT22;4904;49.152;11.004;2023-03-19T04:27:43;7.90;99.90
9730;DHT22;4904;49.152;11.004;2023-03-19T04:30:11;7.90;99.90
9730;DHT22;4904;49.152;11.004;2023-03-19T04:32:38;7.80;99.90
9730;DHT22;4904;49.152;11.004;2023-03-19T04:35:06;7.60;99.90
9730;DHT22;4904;49.152;11.004;2023-03-19T04:37:33;7.50;99.90
9730;DHT22;4904;49.152;11.004;2023-03-19T04:40:00;7.60;99.90
9730;DHT22;4904;49.152;11.004;2023-03-19T04:42:28;7.50;99.90
9730;DHT22;4904;49.152;11.004;2023-03-19T04:44:55;7.40;99.90
9730;DHT22;4904;49.152;11.004;2023-03-19T04:47:21;7.50;99.90
9730;DHT22;4904;49.152;11.004;2023-03-19T04:49:48;7.50;99.90
9730;DHT22;4904;49.152;11.004;2023-03-19T04:52:15;7.60;99.90
9730;DHT22;4904;49.152;11.004;2023-03-19T04:54:42;7.40;99.90
9730;DHT22;4904;49.152;11.004;2023-03-19T04:57:09;7.30;99.90
9730;DHT22;4904;49.152;11.004;2023-03-19T04:59:38;7.30;99.90
9730;DHT22;4904;49.152;11.004;2023-03-19T05:02:05;7.30;99.90
9730;DHT22;4904;49.152;11.004;2023-03-19T05:04:32;7.30;99.90
9730;DHT22;4904;49.152;11.004;2023-03-19T05:06:59;7.40;99.90
9730;DHT22;4904;49.152;11.004;2023-03-19T05:09:26;7.40;99.90
9730;DHT22;4904;49.152;11.004;2023-03-19T05:11:55;7.50;99.90
9730;DHT22;4904;49.152;11.004;2023-03-19T05:14:22;7.50;99.90
9730;DHT22;4904;49.152;11.004;2023-03-19T05:16:51;7.50;99.90
9730;DHT22;4904;49.152;11.004;2023-03-19T05:19:19;7.60;99.90
9730;DHT22;4904;49.152;11.004;2023-03-19T05:21:46;7.70;99.90
9730;DHT22;4904;49.152;11.004;2023-03-19T05:24:13;7.80;99.90
9730;DHT22;4904;49.152;11.004;2023-03-19T05:26:40;7.90;99.90
9730;DHT22;4904;49.152;11.004;2023-03-19T05:29:08;7.80;99.90
9730;DHT22;4904;49.152;11.004;2023-03-19T05:31:36;7.70;99.90
9730;DHT22;4904;49.152;11.004;2023-03-19T05:34:04;7.60;99.90
9730;DHT22;4904;49.152;11.004;2023-03-19T05:36:31;7.70;99.90
9730;DHT22;4904;49.152;11.004;2023-03-19T05:38:58;7.90;99.90
9730;DHT22;4904;49.152;11.004;2023-03-19T05:41:26;8.00;99.90
9730;DHT22;4904;49.152;11.004;2023-03-19T05:43:53;8.00;99.90
9730;DHT22;4904;49.152;11.004;2023-03-19T05:46:20;8.00;99.90
9730;DHT22;4904;49.152;11.004;2023-03-19T05:48:47;8.10;99.90
9730;DHT22;4904;49.152;11.004;2023-03-19T05:51:15;8.10;99.90
9730;DHT22;4904;49.152;11.004;2023-03-19T05:53:42;8.10;99.90
9730;DHT22;4904;49.152;11.004;2023-03-19T05:56:09;8.20;99.90
9730;DHT22;4904;49.152;11.004;2023-03-19T05:58:36;8.20;99.90
9730;DHT22;4904;49.152;11.004;2023-03-19T06:01:03;8.20;99.90
9730;DHT22;4904;49.152;11.004;2023-03-19T06:03:30;8.20;99.90
9730;DHT22;4904;49.152;11.004;2023-03-19T06:05:57;8.20;99.90
9730;DHT22;4904;49.152;11.004;2023-03-19T06:08:25;8.20;99.90
9730;DHT22;4904;49.152;11.004;2023-03-19T06:10:52;8.20;99.90
9730;DHT22;4904;49.152;11.004;2023-03-19T06:13:19;8.20;99.90
9730;DHT22;4904;49.152;11.004;2023-03-19T06:15:47;8.30;99.90
9730;DHT22;4904;49.152;11.004;2023-03-19T06:18:14;8.20;99.90
9730;DHT22;4904;49.152;11.004;2023-03-19T06:20:41;8.30;99.90
9730;DHT22;4904;49.152;11.004;2023-03-19T06:23:08;8.40;99.90
9730;DHT22;4904;49.152;11.004;2023-03-19T06:25:37;8.40;99.90
9730;DHT22;4904;49.152;11.004;2023-03-19T06:28:04;8.60;99.90
9730;DHT22;4904;49.152;11.004;2023-03-19T06:30:31;8.60;99.90
9730;DHT22;4904;49.152;11.004;2023-03-19T06:32:58;8.60;99.90
9730;DHT22;4904;49.152;11.004;2023-03-19T06:35:25;8.70;99.90
9730;DHT22;4904;49.152;11.004;2023-03-19T06:37:52;8.70;99.90
9730;DHT22;4904;49.152;11.004;2023-03-19T06:40:19;8.70;99.90
9730;DHT22;4904;49.152;11.004;2023-03-19T06:42:47;8.80;99.90
9730;DHT22;4904;49.152;11.004;2023-03-19T06:45:15;8.90;99.90
9730;DHT22;4904;49.152;11.004;2023-03-19T06:47:43;8.90;99.90
9730;DHT22;4904;49.152;11.004;2023-03-19T06:50:12;9.00;99.90
9730;DHT22;4904;49.152;11.004;2023-03-19T06:52:39;9.00;99.90
9730;DHT22;4904;49.152;11.004;2023-03-19T06:55:07;9.10;99.90
9730;DHT22;4904;49.152;11.004;2023-03-19T06:57:35;9.20;99.90
9730;DHT22;4904;49.152;11.004;2023-03-19T07:00:04;9.20;99.90
9730;DHT22;4904;49.152;11.004;2023-03-19T07:02:31;9.30;99.90
9730;DHT22;4904;49.152;11.004;2023-03-19T07:04:58;9.40;99.90
9730;DHT22;4904;49.152;11.004;2023-03-19T07:07:25;9.50;99.90
9730;DHT22;4904;49.152;11.004;2023-03-19T07:09:52;9.60;99.90
9730;DHT22;4904;49.152;11.004;2023-03-19T07:12:19;9.60;99.90
9730;DHT22;4904;49.152;11.004;2023-03-19T07:14:46;9.70;99.90
9730;DHT22;4904;49.152;11.004;2023-03-19T07:17:14;9.70;99.90
9730;DHT22;4904;49.152;11.004;2023-03-19T07:19:41;9.80;99.90
9730;DHT22;4904;49.152;11.004;2023-03-19T07:22:07;9.80;99.90
9730;DHT22;4904;49.152;11.004;2023-03-19T07:24:34;9.90;99.90
9730;DHT22;4904;49.152;11.004;2023-03-19T07:27:01;9.90;99.90
9730;DHT22;4904;49.152;11.004;2023-03-19T07:29:28;10.00;99.90
9730;DHT22;4904;49.152;11.004;2023-03-19T07:31:55;10.10;99.90
9730;DHT22;4904;49.152;11.004;2023-03-19T07:34:23;10.10;99.90
9730;DHT22;4904;49.152;11.004;2023-03-19T07:36:50;10.20;99.90
9730;DHT22;4904;49.152;11.004;2023-03-19T07:39:17;10.30;99.90
9730;DHT22;4904;49.152;11.004;2023-03-19T07:41:44;10.30;99.90
9730;DHT22;4904;49.152;11.004;2023-03-19T07:44:13;10.30;99.90
9730;DHT22;4904;49.152;11.004;2023-03-19T07:46:40;10.30;99.90
9730;DHT22;4904;49.152;11.004;2023-03-19T07:49:07;10.40;99.90
9730;DHT22;4904;49.152;11.004;2023-03-19T07:51:35;10.30;99.90
9730;DHT22;4904;49.152;11.004;2023-03-19T07:54:03;10.40;99.90
9730;DHT22;4904;49.152;11.004;2023-03-19T07:56:30;10.40;99.90
9730;DHT22;4904;49.152;11.004;2023-03-19T07:58:56;10.50;99.90
9730;DHT22;4904;49.152;11.004;2023-03-19T08:01:24;10.50;99.90
9730;DHT22;4904;49.152;11.004;2023-03-19T08:03:51;10.60;99.90
9730;DHT22;4904;49.152;11.004;2023-03-19T08:06:18;10.60;99.90
9730;DHT22;4904;49.152;11.004;2023-03-19T08:08:46;10.60;99.90
9730;DHT22;4904;49.152;11.004;2023-03-19T08:11:13;10.60;99.90
9730;DHT22;4904;49.152;11.004;2023-03-19T08:13:40;10.70;99.90
9730;DHT22;4904;49.152;11.004;2023-03-19T08:16:07;10.80;99.90
9730;DHT22;4904;49.152;11.004;2023-03-19T08:18:34;10.90;99.90
9730;DHT22;4904;49.152;11.004;2023-03-19T08:21:01;10.80;99.90
9730;DHT22;4904;49.152;11.004;2023-03-19T08:23:28;10.80;99.90
9730;DHT22;4904;49.152;11.004;2023-03-19T08:25:56;10.80;99.90
9730;DHT22;4904;49.152;11.004;2023-03-19T08:28:23;10.80;99.90
9730;DHT22;4904;49.152;11.004;2023-03-19T08:30:50;10.80;99.90
9730;DHT22;4904;49.152;11.004;2023-03-19T08:33:17;10.70;99.90
9730;DHT22;4904;49.152;11.004;2023-03-19T08:35:44;10.80;99.90
9730;DHT22;4904;49.152;11.004;2023-03-19T08:38:11;10.70;99.90
9730;DHT22;4904;49.152;11.004;2023-03-19T08:40:37;10.60;99.90
9730;DHT22;4904;49.152;11.004;2023-03-19T08:43:06;10.50;99.90
9730;DHT22;4904;49.152;11.004;2023-03-19T08:45:34;10.40;99.90
9730;DHT22;4904;49.152;11.004;2023-03-19T08:48:01;10.30;99.90
9730;DHT22;4904;49.152;11.004;2023-03-19T08:50:28;10.10;99.90
9730;DHT22;4904;49.152;11.004;2023-03-19T08:52:55;10.10;99.90
9730;DHT22;4904;49.152;11.004;2023-03-19T08:55:22;10.00;99.90
9730;DHT22;4904;49.152;11.004;2023-03-19T08:57:49;10.10;99.90
9730;DHT22;4904;49.152;11.004;2023-03-19T09:00:18;10.10;99.90
9730;DHT22;4904;49.152;11.004;2023-03-19T09:02:45;10.10;99.90
9730;DHT22;4904;49.152;11.004;2023-03-19T09:05:12;10.10;99.90
9730;DHT22;4904;49.152;11.004;2023-03-19T09:07:39;10.10;99.90
9730;DHT22;4904;49.152;11.004;2023-03-19T09:10:06;10.20;99.90
9730;DHT22;4904;49.152;11.004;2023-03-19T09:12:33;10.20;99.90
9730;DHT22;4904;49.152;11.004;2023-03-19T09:15:00;10.20;99.90
9730;DHT22;4904;49.152;11.004;2023-03-19T09:17:29;10.20;99.90
9730;DHT22;4904;49.152;11.004;2023-03-19T09:19:56;10.30;99.90
9730;DHT22;4904;49.152;11.004;2023-03-19T09:22:23;10.30;99.90
9730;DHT22;4904;49.152;11.004;2023-03-19T09:24:50;10.30;99.90
9730;DHT22;4904;49.152;11.004;2023-03-19T09:27:17;10.40;99.90
9730;DHT22;4904;49.152;11.004;2023-03-19T09:29:45;10.50;99.90
9730;DHT22;4904;49.152;11.004;2023-03-19T09:32:12;10.50;99.90
9730;DHT22;4904;49.152;11.004;2023-03-19T09:34:40;10.70;99.90
9730;DHT22;4904;49.152;11.004;2023-03-19T09:37:07;10.60;99.90
9730;DHT22;4904;49.152;11.004;2023-03-19T09:39:36;10.60;99.90
9730;DHT22;4904;49.152;11.004;2023-03-19T09:42:13;10.60;99.90
9730;DHT22;4904;49.152;11.004;2023-03-19T09:44:43;10.50;99.90
9730;DHT22;4904;49.152;11.004;2023-03-19T09:47:22;10.40;99.90
9730;DHT22;4904;49.152;11.004;2023-03-19T09:49:52;10.20;99.90
9730;DHT22;4904;49.152;11.004;2023-03-19T09:52:30;10.20;99.90
9730;DHT22;4904;49.152;11.004;2023-03-19T09:55:03;10.20;99.90
9730;DHT22;4904;49.152;11.004;2023-03-19T09:57:33;10.10;99.90
9730;DHT22;4904;49.152;11.004;2023-03-19T10:00:04;10.30;99.90
9730;DHT22;4904;49.152;11.004;2023-03-19T10:02:38;10.20;99.90
9730;DHT22;4904;49.152;11.004;2023-03-19T10:05:17;10.30;99.90
9730;DHT22;4904;49.152;11.004;2023-03-19T10:10:48;10.50;99.90
9730;DHT22;4904;49.152;11.004;2023-03-19T10:13:28;10.60;99.90
9730;DHT22;4904;49.152;11.004;2023-03-19T10:15:58;10.70;99.90
9730;DHT22;4904;49.152;11.004;2023-03-19T10:18:28;10.80;99.90
9730;DHT22;4904;49.152;11.004;2023-03-19T10:21:01;10.90;99.90
9730;DHT22;4904;49.152;11.004;2023-03-19T10:23:36;11.00;99.90
9730;DHT22;4904;49.152;11.004;2023-03-19T10:26:08;11.10;99.90
9730;DHT22;4904;49.152;11.004;2023-03-19T10:28:37;11.20;99.90
9730;DHT22;4904;49.152;11.004;2023-03-19T10:31:17;11.20;99.90
9730;DHT22;4904;49.152;11.004;2023-03-19T10:33:52;11.30;99.90
9730;DHT22;4904;49.152;11.004;2023-03-19T10:36:26;11.40;99.90
9730;DHT22;4904;49.152;11.004;2023-03-19T10:38:56;11.50;99.90
9730;DHT22;4904;49.152;11.004;2023-03-19T10:41:30;11.60;99.90
9730;DHT22;4904;49.152;11.004;2023-03-19T10:44:02;11.70;99.90
9730;DHT22;4904;49.152;11.004;2023-03-19T10:46:36;11.80;99.90
9730;DHT22;4904;49.152;11.004;2023-03-19T10:49:03;11.70;99.90
9730;DHT22;4904;49.152;11.004;2023-03-19T10:51:32;11.70;99.90
9730;DHT22;4904;49.152;11.004;2023-03-19T10:53:59;11.80;99.90
9730;DHT22;4904;49.152;11.004;2023-03-19T10:56:28;11.90;99.90
9730;DHT22;4904;49.152;11.004;2023-03-19T10:59:02;12.00;99.90
9730;DHT22;4904;49.152;11.004;2023-03-19T11:01:32;12.00;99.90
9730;DHT22;4904;49.152;11.004;2023-03-19T11:04:01;11.80;99.90
9730;DHT22;4904;49.152;11.004;2023-03-19T11:06:34;11.80;99.90
9730;DHT22;4904;49.152;11.004;2023-03-19T11:09:13;11.70;99.90
9730;DHT22;4904;49.152;11.004;2023-03-19T11:11:43;11.80;99.90
9730;DHT22;4904;49.152;11.004;2023-03-19T11:14:14;11.90;99.90
9730;DHT22;4904;49.152;11.004;2023-03-19T11:16:48;12.00;99.90
9730;DHT22;4904;49.152;11.004;2023-03-19T11:19:20;12.20;99.90
9730;DHT22;4904;49.152;11.004;2023-03-19T11:22:18;12.30;99.90
9730;DHT22;4904;49.152;11.004;2023-03-19T11:24:51;12.30;99.90
9730;DHT22;4904;49.152;11.004;2023-03-19T11:27:26;12.40;99.90
9730;DHT22;4904;49.152;11.004;2023-03-19T11:29:53;12.60;99.90
9730;DHT22;4904;49.152;11.004;2023-03-19T11:35:40;12.80;99.90
9730;DHT22;4904;49.152;11.004;2023-03-19T11:38:16;12.70;99.90
9730;DHT22;4904;49.152;11.004;2023-03-19T11:40:52;12.90;99.90
9730;DHT22;4904;49.152;11.004;2023-03-19T11:43:52;13.00;99.90
9730;DHT22;4904;49.152;11.004;2023-03-19T11:46:28;13.00;99.90
9730;DHT22;4904;49.152;11.004;2023-03-19T11:51:55;12.10;99.90
9730;DHT22;4904;49.152;11.004;2023-03-19T11:54:33;12.30;99.90
9730;DHT22;4904;49.152;11.004;2023-03-19T11:57:03;12.20;99.90
9730;DHT22;4904;49.152;11.004;2023-03-19T11:59:47;12.50;99.90
9730;DHT22;4904;49.152;11.004;2023-03-19T12:05:25;13.00;99.90
9730;DHT22;4904;49.152;11.004;2023-03-19T12:08:05;13.30;99.90
9730;DHT22;4904;49.152;11.004;2023-03-19T12:10:51;13.40;99.90
9730;DHT22;4904;49.152;11.004;2023-03-19T12:13:58;13.30;99.90
9730;DHT22;4904;49.152;11.004;2023-03-19T12:16:33;13.30;99.90
9730;DHT22;4904;49.152;11.004;2023-03-19T12:19:16;13.50;99.90
9730;DHT22;4904;49.152;11.004;2023-03-19T12:21:54;13.70;99.90
9730;DHT22;4904;49.152;11.004;2023-03-19T12:24:33;13.50;99.90
9730;DHT22;4904;49.152;11.004;2023-03-19T12:27:14;13.50;99.90
9730;DHT22;4904;49.152;11.004;2023-03-19T12:29:51;13.70;99.90
9730;DHT22;4904;49.152;11.004;2023-03-19T12:32:31;13.80;99.90
9730;DHT22;4904;49.152;11.004;2023-03-19T12:35:07;13.90;99.90
9730;DHT22;4904;49.152;11.004;2023-03-19T12:37:38;14.10;99.90
9730;DHT22;4904;49.152;11.004;2023-03-19T12:40:17;14.20;99.90
9730;DHT22;4904;49.152;11.004;2023-03-19T12:42:48;14.40;99.90
9730;DHT22;4904;49.152;11.004;2023-03-19T12:45:25;14.50;99.90
9730;DHT22;4904;49.152;11.004;2023-03-19T12:47:56;14.40;99.90
9730;DHT22;4904;49.152;11.004;2023-03-19T12:50:24;14.00;99.90
9730;DHT22;4904;49.152;11.004;2023-03-19T12:52:54;14.10;99.90
9730;DHT22;4904;49.152;11.004;2023-03-19T12:55:30;14.20;99.90
9730;DHT22;4904;49.152;11.004;2023-03-19T12:58:05;14.30;99.90
9730;DHT22;4904;49.152;11.004;2023-03-19T13:00:35;14.30;99.90
9730;DHT22;4904;49.152;11.004;2023-03-19T13:03:08;14.30;99.90
9730;DHT22;4904;49.152;11.004;2023-03-19T13:05:41;14.30;99.90
9730;DHT22;4904;49.152;11.004;2023-03-19T13:08:15;14.50;99.90
9730;DHT22;4904;49.152;11.004;2023-03-19T13:10:45;14.80;99.90
9730;DHT22;4904;49.152;11.004;2023-03-19T13:13:31;15.00;99.90
9730;DHT22;4904;49.152;11.004;2023-03-19T13:16:06;15.30;99.90
9730;DHT22;4904;49.152;11.004;2023-03-19T13:18:38;15.50;99.90
9730;DHT22;4904;49.152;11.004;2023-03-19T13:21:20;15.80;99.90
9730;DHT22;4904;49.152;11.004;2023-03-19T13:23:50;15.70;99.90
9730;DHT22;4904;49.152;11.004;2023-03-19T13:26:24;15.10;99.90
9730;DHT22;4904;49.152;11.004;2023-03-19T13:28:59;15.00;99.90
9730;DHT22;4904;49.152;11.004;2023-03-19T13:31:30;15.40;99.90
9730;DHT22;4904;49.152;11.004;2023-03-19T13:34:01;15.00;99.90
9730;DHT22;4904;49.152;11.004;2023-03-19T13:36:30;15.20;99.90
9730;DHT22;4904;49.152;11.004;2023-03-19T13:39:01;15.60;99.90
9730;DHT22;4904;49.152;11.004;2023-03-19T13:41:50;15.60;99.90
9730;DHT22;4904;49.152;11.004;2023-03-19T13:44:27;15.70;99.90
9730;DHT22;4904;49.152;11.004;2023-03-19T13:46:55;15.70;99.90
9730;DHT22;4904;49.152;11.004;2023-03-19T13:49:28;16.20;99.90
9730;DHT22;4904;49.152;11.004;2023-03-19T13:52:01;15.70;99.90
9730;DHT22;4904;49.152;11.004;2023-03-19T13:54:37;15.70;99.90
9730;DHT22;4904;49.152;11.004;2023-03-19T13:57:20;15.40;99.90
9730;DHT22;4904;49.152;11.004;2023-03-19T14:03:18;15.60;99.90
9730;DHT22;4904;49.152;11.004;2023-03-19T14:05:47;15.80;99.90
9730;DHT22;4904;49.152;11.004;2023-03-19T14:08:15;15.90;99.90
9730;DHT22;4904;49.152;11.004;2023-03-19T14:10:46;16.00;99.90
9730;DHT22;4904;49.152;11.004;2023-03-19T14:13:20;16.00;99.90
9730;DHT22;4904;49.152;11.004;2023-03-19T14:15:51;15.80;99.90
9730;DHT22;4904;49.152;11.004;2023-03-19T14:18:21;15.70;99.90
9730;DHT22;4904;49.152;11.004;2023-03-19T14:20:56;15.80;99.90
9730;DHT22;4904;49.152;11.004;2023-03-19T14:23:25;15.70;99.90
9730;DHT22;4904;49.152;11.004;2023-03-19T14:25:58;15.70;99.90
9730;DHT22;4904;49.152;11.004;2023-03-19T14:28:34;15.80;99.90
9730;DHT22;4904;49.152;11.004;2023-03-19T14:31:04;15.80;99.90
9730;DHT22;4904;49.152;11.004;2023-03-19T14:33:41;15.90;99.90
9730;DHT22;4904;49.152;11.004;2023-03-19T14:36:12;15.70;99.90
9730;DHT22;4904;49.152;11.004;2023-03-19T14:38:45;16.00;99.90
9730;DHT22;4904;49.152;11.004;2023-03-19T14:41:17;16.20;99.90
9730;DHT22;4904;49.152;11.004;2023-03-19T14:43:57;16.60;99.90
9730;DHT22;4904;49.152;11.004;2023-03-19T14:46:35;16.70;99.90
9730;DHT22;4904;49.152;11.004;2023-03-19T14:49:37;16.70;99.90
9730;DHT22;4904;49.152;11.004;2023-03-19T14:52:13;16.50;99.90
9730;DHT22;4904;49.152;11.004;2023-03-19T14:54:45;16.20;99.90
9730;DHT22;4904;49.152;11.004;2023-03-19T14:57:16;15.80;99.90
9730;DHT22;4904;49.152;11.004;2023-03-19T14:59:43;15.70;99.90
9730;DHT22;4904;49.152;11.004;2023-03-19T15:02:21;15.40;99.90
9730;DHT22;4904;49.152;11.004;2023-03-19T15:04:53;15.30;99.90
9730;DHT22;4904;49.152;11.004;2023-03-19T15:07:23;15.60;99.90
9730;DHT22;4904;49.152;11.004;2023-03-19T15:09:53;15.70;99.90
9730;DHT22;4904;49.152;11.004;2023-03-19T15:12:32;15.60;99.90
9730;DHT22;4904;49.152;11.004;2023-03-19T15:15:15;15.90;99.90
9730;DHT22;4904;49.152;11.004;2023-03-19T15:17:45;16.10;99.90
9730;DHT22;4904;49.152;11.004;2023-03-19T15:20:17;16.00;99.90
9730;DHT22;4904;49.152;11.004;2023-03-19T15:22:52;15.90;99.90
9730;DHT22;4904;49.152;11.004;2023-03-19T15:25:20;15.90;99.90
9730;DHT22;4904;49.152;11.004;2023-03-19T15:28:04;16.00;99.90
9730;DHT22;4904;49.152;11.004;2023-03-19T15:30:32;16.00;99.90
9730;DHT22;4904;49.152;11.004;2023-03-19T15:33:00;16.00;99.90
9730;DHT22;4904;49.152;11.004;2023-03-19T15:35:30;16.10;99.90
9730;DHT22;4904;49.152;11.004;2023-03-19T15:37:59;16.20;99.90
9730;DHT22;4904;49.152;11.004;2023-03-19T15:40:29;16.30;99.90
9730;DHT22;4904;49.152;11.004;2023-03-19T15:42:59;16.40;99.90
9730;DHT22;4904;49.152;11.004;2023-03-19T15:45:28;16.50;99.90
9730;DHT22;4904;49.152;11.004;2023-03-19T15:48:01;16.60;99.90
9730;DHT22;4904;49.152;11.004;2023-03-19T15:50:31;16.80;99.90
9730;DHT22;4904;49.152;11.004;2023-03-19T15:53:01;16.80;99.90
9730;DHT22;4904;49.152;11.004;2023-03-19T15:55:32;16.90;99.90
9730;DHT22;4904;49.152;11.004;2023-03-19T15:58:05;17.00;99.90
9730;DHT22;4904;49.152;11.004;2023-03-19T16:00:35;17.10;99.90
9730;DHT22;4904;49.152;11.004;2023-03-19T16:03:04;16.90;99.90
9730;DHT22;4904;49.152;11.004;2023-03-19T16:05:32;17.10;99.90
9730;DHT22;4904;49.152;11.004;2023-03-19T16:08:01;17.00;99.90
9730;DHT22;4904;49.152;11.004;2023-03-19T16:10:37;16.90;99.90
9730;DHT22;4904;49.152;11.004;2023-03-19T16:13:25;16.70;99.90
9730;DHT22;4904;49.152;11.004;2023-03-19T16:16:00;16.70;99.90
9730;DHT22;4904;49.152;11.004;2023-03-19T16:18:39;16.50;99.90
9730;DHT22;4904;49.152;11.004;2023-03-19T16:21:08;16.60;99.90
9730;DHT22;4904;49.152;11.004;2023-03-19T16:23:39;16.50;99.90
9730;DHT22;4904;49.152;11.004;2023-03-19T16:26:18;16.20;99.90